Time;durP1;ratioP1;P1;durP2;ratioP2;P2;SDS_P1;SDS_P2;PMS_P1;PMS_P2;Temp;Humidity;BMP_temperature;BMP_pressure;BME280_temperature;BME280_humidity;BME280_pressure;Samples;Min_cycle;Max_cycle;Signal;HPM_P1;HPM_P2
2023/08/02 00:00:56;;;;;;;1.98;1.45;;;17.00;99.90;;;;;;5034851;28;20206;-31
2023/08/02 00:03:22;;;;;;;3.65;1.73;;;16.90;99.90;;;;;;5059656;28;20190;-32
2023/08/02 00:05:57;;;;;;;2.05;1.40;;;16.90;99.90;;;;;;5041752;28;20213;-31
2023/08/02 00:08:24;;;;;;;3.97;1.77;;;16.90;99.90;;;;;;5051658;28;20173;-31
2023/08/02 00:10:50;;;;;;;2.75;1.63;;;16.90;99.90;;;;;;5058554;28;20220;-31
2023/08/02 00:13:16;;;;;;;1.67;1.50;;;16.80;99.90;;;;;;5048623;28;20200;-31
2023/08/02 00:15:42;;;;;;;2.33;1.60;;;16.80;99.90;;;;;;5043140;28;20244;-32
2023/08/02 00:18:09;;;;;;;3.63;2.22;;;16.80;99.90;;;;;;5042900;28;20190;-32
2023/08/02 00:20:37;;;;;;;2.40;1.83;;;16.80;99.90;;;;;;5034122;28;20229;-31
2023/08/02 00:23:03;;;;;;;2.65;2.00;;;16.80;99.90;;;;;;5051231;28;20214;-30
2023/08/02 00:25:29;;;;;;;2.78;1.60;;;16.80;99.90;;;;;;5057675;28;20202;-31
2023/08/02 00:27:55;;;;;;;3.08;1.50;;;16.80;99.90;;;;;;5042831;28;20186;-31
2023/08/02 00:30:21;;;;;;;3.20;1.70;;;16.70;99.90;;;;;;5036616;28;20213;-31
2023/08/02 00:32:48;;;;;;;4.10;1.60;;;16.70;99.90;;;;;;5063075;28;20185;-31
2023/08/02 00:35:15;;;;;;;2.88;1.42;;;16.70;99.90;;;;;;5045651;28;20188;-31
2023/08/02 00:37:41;;;;;;;1.75;1.50;;;16.70;99.90;;;;;;5057303;28;20193;-31
2023/08/02 00:40:08;;;;;;;4.18;1.70;;;16.70;99.90;;;;;;5051706;28;20296;-31
2023/08/02 00:42:35;;;;;;;4.57;1.80;;;16.60;99.90;;;;;;5053877;28;20177;-31
2023/08/02 00:45:02;;;;;;;2.70;1.60;;;16.50;99.90;;;;;;5058820;28;20190;-31
2023/08/02 00:47:27;;;;;;;1.83;1.57;;;16.50;99.90;;;;;;5046188;28;20242;-32
2023/08/02 00:49:53;;;;;;;1.88;1.45;;;16.50;99.90;;;;;;5051034;28;20198;-31
2023/08/02 00:52:20;;;;;;;2.63;1.77;;;16.50;99.90;;;;;;5049939;28;20178;-30
2023/08/02 00:54:47;;;;;;;4.53;1.83;;;16.50;99.90;;;;;;5056222;28;20181;-33
2023/08/02 00:57:14;;;;;;;3.40;1.42;;;16.40;99.90;;;;;;5052381;28;20185;-31
2023/08/02 00:59:40;;;;;;;2.70;1.70;;;16.40;99.90;;;;;;5042261;28;20213;-31
2023/08/02 01:02:07;;;;;;;2.07;1.70;;;16.40;99.90;;;;;;5034789;28;20220;-31
2023/08/02 01:04:35;;;;;;;2.08;1.40;;;16.30;99.90;;;;;;5066677;28;20213;-31
2023/08/02 01:07:21;;;;;;;3.40;1.80;;;16.30;99.90;;;;;;5038748;28;20219;-32
2023/08/02 01:10:06;;;;;;;3.90;1.80;;;16.30;99.90;;;;;;5053019;28;20201;-32
2023/08/02 01:12:35;;;;;;;3.60;1.70;;;16.30;99.90;;;;;;5033776;28;20174;-31
2023/08/02 01:15:05;;;;;;;1.87;1.53;;;16.20;99.90;;;;;;5054724;28;20217;-31
2023/08/02 01:17:32;;;;;;;2.50;1.80;;;16.20;99.90;;;;;;5041166;28;20173;-31
2023/08/02 01:20:06;;;;;;;2.90;1.90;;;16.20;99.90;;;;;;5033144;28;20292;-31
2023/08/02 01:22:32;;;;;;;2.37;1.60;;;16.10;99.90;;;;;;5041199;28;20274;-31
2023/08/02 01:24:59;;;;;;;3.17;1.70;;;16.10;99.90;;;;;;5048197;28;20276;-31
2023/08/02 01:27:42;;;;;;;2.47;1.58;;;16.00;99.90;;;;;;5058009;28;20269;-32
2023/08/02 01:30:13;;;;;;;2.23;1.60;;;15.90;99.90;;;;;;5033158;28;20198;-30
2023/08/02 01:32:39;;;;;;;1.60;1.50;;;15.90;99.90;;;;;;5048206;28;20189;-30
2023/08/02 01:35:05;;;;;;;2.23;1.53;;;15.80;99.90;;;;;;5056994;28;20203;-30
2023/08/02 01:37:34;;;;;;;4.33;1.70;;;15.70;99.90;;;;;;5040581;28;20232;-31
2023/08/02 01:40:00;;;;;;;3.97;2.00;;;15.70;99.90;;;;;;5065103;28;20273;-31
2023/08/02 01:42:26;;;;;;;2.17;1.60;;;15.70;99.90;;;;;;5042339;28;20276;-32
2023/08/02 01:44:51;;;;;;;2.00;1.60;;;15.60;99.90;;;;;;5038561;28;20190;-30
2023/08/02 01:47:17;;;;;;;5.00;1.70;;;15.60;99.90;;;;;;5034723;28;20296;-30
2023/08/02 01:49:44;;;;;;;5.03;1.50;;;15.60;99.90;;;;;;5038904;28;20230;-31
2023/08/02 01:52:09;;;;;;;2.53;1.60;;;15.60;99.90;;;;;;5049173;28;20181;-30
2023/08/02 01:54:36;;;;;;;2.27;1.53;;;15.60;99.90;;;;;;5046418;28;20177;-31
2023/08/02 01:57:01;;;;;;;3.00;1.83;;;15.60;99.90;;;;;;5051985;28;20185;-31
2023/08/02 01:59:27;;;;;;;3.53;1.70;;;15.60;99.90;;;;;;5052999;28;20206;-32
2023/08/02 02:01:53;;;;;;;2.97;1.90;;;15.60;99.90;;;;;;5031562;28;20182;-31
2023/08/02 02:04:19;;;;;;;3.93;1.90;;;15.70;99.90;;;;;;5047250;28;20260;-30
2023/08/02 02:06:45;;;;;;;2.50;1.73;;;15.60;99.90;;;;;;5048546;28;20205;-30
2023/08/02 02:09:11;;;;;;;2.40;1.90;;;15.70;99.90;;;;;;5064613;28;20232;-30
2023/08/02 02:11:36;;;;;;;2.00;1.60;;;15.70;99.90;;;;;;5052142;28;20193;-30
2023/08/02 02:14:02;;;;;;;3.53;1.97;;;15.70;99.90;;;;;;5036187;28;20231;-31
2023/08/02 02:16:28;;;;;;;3.87;1.80;;;15.80;99.90;;;;;;5023141;28;1217469;-31
2023/08/02 02:18:54;;;;;;;3.03;2.03;;;15.70;99.90;;;;;;5033060;28;20296;-30
2023/08/02 02:21:20;;;;;;;2.40;1.90;;;15.70;99.90;;;;;;5033352;28;20182;-30
2023/08/02 02:23:46;;;;;;;4.43;1.90;;;15.70;99.90;;;;;;5048435;28;20185;-31
2023/08/02 02:26:12;;;;;;;2.50;1.73;;;15.70;99.90;;;;;;5032629;28;20217;-31
2023/08/02 02:28:37;;;;;;;2.90;1.73;;;15.60;99.90;;;;;;5061379;28;20177;-31
2023/08/02 02:31:03;;;;;;;2.73;1.87;;;15.60;99.90;;;;;;5045715;28;20181;-31
2023/08/02 02:33:29;;;;;;;4.57;1.60;;;15.60;99.90;;;;;;5032493;28;20186;-32
2023/08/02 02:35:55;;;;;;;5.03;2.43;;;15.50;99.90;;;;;;5032633;28;20224;-31
2023/08/02 02:38:20;;;;;;;2.97;1.60;;;15.50;99.90;;;;;;5050315;28;20185;-31
2023/08/02 02:40:46;;;;;;;3.30;1.73;;;15.40;99.90;;;;;;5069399;28;20204;-30
2023/08/02 02:43:12;;;;;;;4.40;2.00;;;15.40;99.90;;;;;;5052605;28;20692;-36
2023/08/02 02:45:38;;;;;;;4.80;1.80;;;15.40;99.90;;;;;;5040285;28;20206;-31
2023/08/02 02:48:04;;;;;;;3.03;1.90;;;15.40;99.90;;;;;;5048168;28;20189;-30
2023/08/02 02:50:30;;;;;;;2.23;1.70;;;15.40;99.90;;;;;;5035123;28;20206;-30
2023/08/02 02:52:56;;;;;;;1.77;1.67;;;15.40;99.90;;;;;;5048885;28;20178;-30
2023/08/02 02:55:21;;;;;;;3.10;1.77;;;15.50;99.90;;;;;;5058712;28;20189;-30
2023/08/02 02:57:47;;;;;;;2.57;1.73;;;15.50;99.90;;;;;;5063808;28;20186;-31
2023/08/02 03:00:13;;;;;;;2.90;1.80;;;15.50;99.90;;;;;;5040650;28;20254;-32
2023/08/02 03:02:39;;;;;;;2.93;1.90;;;15.50;99.90;;;;;;5040507;28;20185;-31
2023/08/02 03:05:05;;;;;;;3.73;1.80;;;15.60;99.90;;;;;;5039476;28;20185;-30
2023/08/02 03:07:31;;;;;;;2.67;1.97;;;15.60;99.90;;;;;;5041565;28;20630;-31
2023/08/02 03:09:57;;;;;;;3.57;1.70;;;15.60;99.90;;;;;;5049331;28;20214;-31
2023/08/02 03:12:23;;;;;;;3.23;1.83;;;15.60;99.90;;;;;;5031672;28;20182;-31
2023/08/02 03:14:49;;;;;;;1.80;1.70;;;15.70;99.90;;;;;;5036941;28;20212;-31
2023/08/02 03:17:15;;;;;;;4.20;1.97;;;15.80;99.90;;;;;;5063690;28;20266;-31
2023/08/02 03:19:41;;;;;;;2.00;1.70;;;15.80;99.90;;;;;;5035367;28;20293;-31
2023/08/02 03:22:07;;;;;;;4.50;1.93;;;15.80;99.90;;;;;;5035888;28;20231;-31
2023/08/02 03:24:32;;;;;;;2.73;1.80;;;15.80;99.90;;;;;;5052009;28;20189;-30
2023/08/02 03:26:58;;;;;;;2.20;1.60;;;15.90;99.90;;;;;;5042273;28;20304;-31
2023/08/02 03:29:25;;;;;;;3.77;2.10;;;15.90;99.90;;;;;;5045176;28;20206;-30
2023/08/02 03:31:51;;;;;;;2.57;1.80;;;15.90;99.90;;;;;;5059270;28;20182;-31
2023/08/02 03:34:17;;;;;;;3.40;1.97;;;16.00;99.90;;;;;;5037439;28;20232;-31
2023/08/02 03:36:42;;;;;;;2.50;1.83;;;16.00;99.90;;;;;;5043384;28;20205;-30
2023/08/02 03:39:10;;;;;;;3.90;2.10;;;16.00;99.90;;;;;;5045267;28;20201;-29
2023/08/02 03:41:36;;;;;;;2.90;2.00;;;15.90;99.90;;;;;;5053020;28;20261;-31
2023/08/02 03:44:02;;;;;;;1.90;1.70;;;15.90;99.90;;;;;;5043220;28;20187;-31
2023/08/02 03:46:28;;;;;;;2.77;1.90;;;15.90;99.90;;;;;;5057938;28;20220;-31
2023/08/02 03:48:53;;;;;;;2.97;1.77;;;15.80;99.90;;;;;;5048926;28;20289;-31
2023/08/02 03:51:19;;;;;;;3.43;2.00;;;15.80;99.90;;;;;;5037785;28;20249;-31
2023/08/02 03:53:45;;;;;;;4.50;1.80;;;15.80;99.90;;;;;;5043758;28;20183;-32
2023/08/02 03:56:11;;;;;;;2.43;1.90;;;15.80;99.90;;;;;;5041457;28;20189;-33
2023/08/02 03:58:37;;;;;;;2.93;2.00;;;15.80;99.90;;;;;;5034518;28;20186;-31
2023/08/02 04:01:03;;;;;;;5.33;2.30;;;15.80;99.90;;;;;;5058218;28;20282;-31
2023/08/02 04:03:28;;;;;;;3.43;2.60;;;15.80;99.90;;;;;;5056720;28;20182;-31
2023/08/02 04:05:54;;;;;;;4.23;2.17;;;15.80;99.90;;;;;;5054824;28;20201;-31
2023/08/02 04:08:20;;;;;;;4.67;2.70;;;15.90;99.90;;;;;;5063234;28;20186;-32
2023/08/02 04:10:46;;;;;;;2.60;2.07;;;15.90;99.90;;;;;;5050752;28;20201;-32
2023/08/02 04:13:11;;;;;;;3.57;2.20;;;16.00;99.90;;;;;;5043024;28;20181;-31
2023/08/02 04:15:37;;;;;;;3.47;2.00;;;16.00;99.90;;;;;;5037751;28;20197;-31
2023/08/02 04:18:03;;;;;;;3.30;2.37;;;16.00;99.90;;;;;;5056621;28;20193;-32
2023/08/02 04:20:30;;;;;;;2.97;2.00;;;16.10;99.90;;;;;;5041981;28;20202;-32
2023/08/02 04:22:56;;;;;;;2.90;1.90;;;16.10;99.90;;;;;;5039946;28;20185;-31
2023/08/02 04:25:22;;;;;;;6.03;2.30;;;16.10;99.90;;;;;;5053961;28;20200;-31
2023/08/02 04:27:47;;;;;;;5.43;2.20;;;16.20;99.90;;;;;;5053267;28;20185;-32
2023/08/02 04:30:13;;;;;;;4.63;2.50;;;16.20;99.90;;;;;;5054308;28;20248;-31
2023/08/02 04:32:39;;;;;;;3.73;2.47;;;16.20;99.90;;;;;;5049117;28;20182;-30
2023/08/02 04:35:05;;;;;;;2.97;2.50;;;16.20;99.90;;;;;;5055021;28;20236;-31
2023/08/02 04:37:32;;;;;;;2.93;2.47;;;16.20;99.90;;;;;;5055677;28;20200;-30
2023/08/02 04:39:58;;;;;;;4.77;2.77;;;16.20;99.90;;;;;;5065791;28;20343;-31
2023/08/02 04:42:25;;;;;;;3.50;2.33;;;16.20;99.90;;;;;;5050681;28;20246;-33
2023/08/02 04:44:51;;;;;;;4.43;2.50;;;16.20;99.90;;;;;;5046562;28;20185;-30
2023/08/02 04:47:17;;;;;;;3.30;2.20;;;16.30;99.90;;;;;;5054550;28;20205;-31
2023/08/02 04:49:43;;;;;;;4.67;2.63;;;16.30;99.90;;;;;;5059804;28;20232;-32
2023/08/02 04:52:09;;;;;;;2.65;2.38;;;16.30;99.90;;;;;;5039031;28;20188;-30
2023/08/02 04:54:35;;;;;;;3.73;2.80;;;16.20;99.90;;;;;;5061098;28;20186;-33
2023/08/02 04:57:01;;;;;;;3.73;2.60;;;16.20;99.90;;;;;;5039886;28;20188;-31
2023/08/02 04:59:27;;;;;;;3.93;2.70;;;16.20;99.90;;;;;;5040218;28;20263;-31
2023/08/02 05:01:52;;;;;;;4.30;2.63;;;16.20;99.90;;;;;;5054911;28;20182;-31
2023/08/02 05:04:18;;;;;;;3.33;2.47;;;16.20;99.90;;;;;;5045491;28;20194;-30
2023/08/02 05:06:44;;;;;;;4.70;2.47;;;16.20;99.90;;;;;;5042444;28;20206;-32
2023/08/02 05:09:11;;;;;;;4.40;2.47;;;16.20;99.90;;;;;;5033807;28;20202;-33
2023/08/02 05:11:40;;;;;;;3.23;2.70;;;16.10;99.90;;;;;;5058221;28;20181;-31
2023/08/02 05:14:06;;;;;;;4.30;2.83;;;16.00;99.90;;;;;;5055395;28;20220;-30
2023/08/02 05:16:31;;;;;;;3.10;2.57;;;16.00;99.90;;;;;;5041785;28;20680;-31
2023/08/02 05:18:57;;;;;;;3.67;2.40;;;16.00;99.90;;;;;;5046749;28;20224;-31
2023/08/02 05:21:23;;;;;;;2.93;2.57;;;15.90;99.90;;;;;;5052382;28;20185;-33
2023/08/02 05:23:50;;;;;;;4.40;2.77;;;15.90;99.90;;;;;;5032960;28;20178;-31
2023/08/02 05:26:15;;;;;;;3.50;2.60;;;15.90;99.90;;;;;;5050862;28;20208;-31
2023/08/02 05:28:41;;;;;;;5.60;3.33;;;15.90;99.90;;;;;;5050642;28;20178;-30
2023/08/02 05:31:11;;;;;;;3.83;2.63;;;15.90;99.90;;;;;;5050054;28;20668;-31
2023/08/02 05:33:38;;;;;;;4.77;2.70;;;15.90;99.90;;;;;;5052819;28;20189;-30
2023/08/02 05:36:05;;;;;;;3.57;2.70;;;15.90;99.90;;;;;;5032997;28;20182;-31
2023/08/02 05:38:33;;;;;;;3.00;2.60;;;15.90;99.90;;;;;;5047920;28;20207;-30
2023/08/02 05:41:03;;;;;;;5.13;2.60;;;15.90;99.90;;;;;;5048037;28;20178;-33
2023/08/02 05:43:30;;;;;;;3.53;2.73;;;15.90;99.90;;;;;;5048131;28;20182;-36
2023/08/02 05:45:56;;;;;;;3.25;2.50;;;15.90;99.90;;;;;;5037666;28;20209;-31
2023/08/02 05:48:22;;;;;;;4.37;2.73;;;16.00;99.90;;;;;;5053538;28;20182;-31
2023/08/02 05:50:48;;;;;;;3.00;2.70;;;16.00;99.90;;;;;;5032838;28;20198;-30
2023/08/02 05:53:14;;;;;;;3.70;2.77;;;16.00;99.90;;;;;;5073040;28;20177;-31
2023/08/02 05:55:40;;;;;;;3.93;2.53;;;16.10;99.90;;;;;;5042497;28;20191;-32
2023/08/02 05:58:06;;;;;;;3.60;2.90;;;16.10;99.90;;;;;;5033053;28;20186;-31
2023/08/02 06:00:32;;;;;;;6.03;2.80;;;16.10;99.90;;;;;;5041252;28;20212;-32
2023/08/02 06:02:58;;;;;;;4.00;3.05;;;16.20;99.90;;;;;;5033191;28;20269;-30
2023/08/02 06:05:23;;;;;;;4.37;3.03;;;16.20;99.90;;;;;;5032829;28;20185;-31
2023/08/02 06:07:49;;;;;;;5.87;3.03;;;16.30;99.90;;;;;;5036366;28;20223;-31
2023/08/02 06:10:15;;;;;;;5.93;2.95;;;16.30;99.90;;;;;;5062968;28;20327;-32
2023/08/02 06:12:41;;;;;;;3.80;2.87;;;16.30;99.90;;;;;;5044719;28;20182;-34
2023/08/02 06:15:07;;;;;;;3.43;3.10;;;16.40;99.90;;;;;;5045813;28;20247;-30
2023/08/02 06:17:33;;;;;;;6.97;3.60;;;16.40;99.90;;;;;;5058522;28;20209;-31
2023/08/02 06:19:59;;;;;;;5.13;3.27;;;16.40;99.90;;;;;;5039731;28;20216;-32
2023/08/02 06:22:25;;;;;;;3.73;2.60;;;16.50;99.90;;;;;;5040904;28;20178;-30
2023/08/02 06:24:51;;;;;;;3.75;3.08;;;16.50;99.90;;;;;;5044082;28;20212;-30
2023/08/02 06:27:16;;;;;;;3.92;2.97;;;16.60;99.90;;;;;;5039528;28;20198;-32
2023/08/02 06:29:42;;;;;;;4.68;2.85;;;16.70;99.90;;;;;;5033841;28;20210;-33
2023/08/02 06:32:08;;;;;;;4.97;3.00;;;16.80;99.90;;;;;;5038588;28;20180;-32
2023/08/02 06:34:34;;;;;;;4.63;2.88;;;16.90;99.90;;;;;;5058335;28;20199;-32
2023/08/02 06:37:00;;;;;;;3.00;2.70;;;16.90;99.90;;;;;;5062391;28;20230;-32
2023/08/02 06:39:25;;;;;;;4.90;3.20;;;17.00;99.90;;;;;;5061376;28;20202;-32
2023/08/02 06:41:51;;;;;;;5.35;3.13;;;17.00;99.90;;;;;;5058608;28;20216;-32
2023/08/02 06:44:20;;;;;;;4.10;3.30;;;17.00;99.90;;;;;;5037771;28;20189;-32
2023/08/02 06:46:45;;;;;;;4.05;3.50;;;17.00;99.90;;;;;;5042797;28;20209;-32
2023/08/02 06:49:11;;;;;;;3.83;3.08;;;16.90;99.90;;;;;;5046998;28;20225;-32
2023/08/02 06:51:37;;;;;;;5.28;3.63;;;16.90;99.90;;;;;;5037021;28;20189;-32
2023/08/02 06:54:03;;;;;;;4.18;3.20;;;16.90;99.90;;;;;;5044107;28;20178;-32
2023/08/02 06:56:29;;;;;;;5.90;3.80;;;16.90;99.90;;;;;;5038690;28;20178;-32
2023/08/02 06:58:54;;;;;;;7.03;3.78;;;16.90;99.90;;;;;;5053000;28;20209;-32
2023/08/02 07:01:23;;;;;;;4.15;3.60;;;16.90;99.90;;;;;;5042386;28;20175;-32
2023/08/02 07:03:49;;;;;;;8.15;3.80;;;16.90;99.90;;;;;;5060087;22;20231;-35
2023/08/02 07:06:17;;;;;;;5.00;3.75;;;17.00;99.90;;;;;;4993793;28;20232;-34
2023/08/02 07:08:44;;;;;;;4.10;3.70;;;17.10;99.90;;;;;;4999339;28;20255;-34
2023/08/02 07:11:10;;;;;;;4.18;3.38;;;17.10;99.90;;;;;;4979893;28;20210;-34
2023/08/02 07:13:37;;;;;;;4.25;3.85;;;17.20;99.90;;;;;;4971670;28;20674;-34
2023/08/02 07:16:07;;;;;;;4.13;3.35;;;17.20;99.90;;;;;;4964698;28;20201;-34
2023/08/02 07:18:33;;;;;;;4.50;3.25;;;17.30;99.90;;;;;;4991343;28;20284;-34
2023/08/02 07:21:05;;;;;;;4.32;3.35;;;17.20;99.90;;;;;;4970921;28;20192;-34
2023/08/02 07:23:31;;;;;;;4.45;3.10;;;17.20;99.90;;;;;;4972784;28;20215;-34
2023/08/02 07:25:57;;;;;;;4.07;3.13;;;17.20;99.90;;;;;;4973311;28;20212;-34
2023/08/02 07:28:23;;;;;;;3.28;2.60;;;17.20;99.90;;;;;;4988393;28;20183;-34
2023/08/02 07:30:48;;;;;;;3.83;3.05;;;17.20;99.90;;;;;;4984175;28;20280;-35
2023/08/02 07:33:14;;;;;;;4.60;3.10;;;17.20;99.90;;;;;;4979184;28;20181;-34
2023/08/02 07:35:40;;;;;;;3.78;3.03;;;17.20;99.90;;;;;;4982007;28;20208;-34
2023/08/02 07:38:06;;;;;;;4.03;3.05;;;17.20;99.90;;;;;;4977161;28;20185;-33
2023/08/02 07:40:32;;;;;;;3.30;3.00;;;17.20;99.90;;;;;;4966992;28;20181;-35
2023/08/02 07:42:57;;;;;;;5.63;2.88;;;17.30;99.90;;;;;;4981328;28;20173;-34
2023/08/02 07:45:23;;;;;;;3.33;2.95;;;17.30;99.90;;;;;;4981063;28;20222;-34
2023/08/02 07:47:49;;;;;;;3.08;2.75;;;17.30;99.90;;;;;;4966713;28;20199;-34
2023/08/02 07:50:15;;;;;;;3.47;2.92;;;17.40;99.90;;;;;;4979254;28;20176;-34
2023/08/02 07:52:41;;;;;;;3.58;2.85;;;17.40;99.90;;;;;;4974808;28;20200;-34
2023/08/02 07:55:07;;;;;;;5.22;3.40;;;17.40;99.90;;;;;;4961262;28;20195;-34
2023/08/02 07:57:34;;;;;;;5.18;3.05;;;17.30;99.90;;;;;;4976573;28;20207;-33
2023/08/02 08:00:00;;;;;;;4.18;3.13;;;17.30;99.90;;;;;;4976761;28;20183;-34
2023/08/02 08:02:27;;;;;;;4.35;3.13;;;17.30;99.90;;;;;;4982270;28;20187;-34
2023/08/02 08:04:54;;;;;;;5.00;3.10;;;17.30;99.90;;;;;;4980112;28;20231;-34
2023/08/02 08:07:20;;;;;;;4.35;2.95;;;17.30;99.90;;;;;;4981805;28;20209;-33
2023/08/02 08:09:46;;;;;;;3.38;2.85;;;17.30;99.90;;;;;;4981148;28;20184;-34
2023/08/02 08:12:12;;;;;;;3.75;3.40;;;17.30;99.90;;;;;;4982160;28;20340;-33
2023/08/02 08:14:38;;;;;;;4.78;3.15;;;17.30;99.90;;;;;;4982659;28;20295;-34
2023/08/02 08:17:05;;;;;;;3.63;3.10;;;17.40;99.90;;;;;;4984606;28;20212;-34
2023/08/02 08:19:33;;;;;;;3.35;2.75;;;17.40;99.90;;;;;;4982331;28;20220;-36
2023/08/02 08:22:00;;;;;;;3.65;2.58;;;17.30;99.90;;;;;;4979885;28;20192;-33
2023/08/02 08:24:26;;;;;;;3.75;2.83;;;17.40;99.90;;;;;;4964684;28;20216;-34
2023/08/02 08:26:55;;;;;;;3.28;2.78;;;17.40;99.90;;;;;;4982791;28;20670;-35
2023/08/02 08:29:21;;;;;;;5.05;3.13;;;17.40;99.90;;;;;;4972938;28;20188;-34
2023/08/02 08:31:47;;;;;;;2.80;2.50;;;17.40;99.90;;;;;;4974979;28;20231;-33
2023/08/02 08:34:13;;;;;;;4.70;2.95;;;17.50;99.90;;;;;;4962052;28;20295;-34
2023/08/02 08:36:41;;;;;;;4.70;2.83;;;17.50;99.90;;;;;;4950880;28;20185;-33
2023/08/02 08:39:09;;;;;;;2.95;2.75;;;17.50;99.90;;;;;;4965114;28;20188;-33
2023/08/02 08:41:37;;;;;;;3.60;2.35;;;17.50;99.90;;;;;;4972661;28;20199;-34
2023/08/02 08:44:05;;;;;;;3.03;2.70;;;17.50;99.90;;;;;;4969055;28;20243;-33
2023/08/02 08:46:34;;;;;;;3.40;3.10;;;17.40;99.90;;;;;;4970654;28;20225;-34
2023/08/02 08:49:06;;;;;;;3.03;2.58;;;17.40;99.90;;;;;;4973019;28;20180;-34
2023/08/02 08:51:41;;;;;;;4.72;2.97;;;17.50;99.90;;;;;;4964819;28;20180;-35
2023/08/02 08:54:23;;;;;;;4.03;3.20;;;17.60;99.90;;;;;;4966876;28;20243;-34
2023/08/02 08:56:53;;;;;;;4.68;3.17;;;17.60;99.90;;;;;;4971563;28;20191;-34
2023/08/02 08:59:21;;;;;;;4.30;3.20;;;17.70;99.90;;;;;;4970145;28;20327;-34
2023/08/02 09:01:50;;;;;;;3.83;3.17;;;17.80;99.90;;;;;;4970780;28;20231;-36
2023/08/02 09:04:20;;;;;;;4.80;3.10;;;17.90;99.90;;;;;;4972325;28;20269;-34
2023/08/02 09:06:46;;;;;;;3.55;3.03;;;17.90;99.90;;;;;;4971307;28;20247;-34
2023/08/02 09:09:14;;;;;;;3.58;3.10;;;18.00;99.90;;;;;;4963309;28;20232;-34
2023/08/02 09:11:45;;;;;;;3.80;2.90;;;18.00;99.90;;;;;;4971350;28;20241;-34
2023/08/02 09:14:16;;;;;;;3.83;3.20;;;18.10;99.90;;;;;;4958441;28;20235;-33
2023/08/02 09:16:59;;;;;;;3.50;3.20;;;18.20;99.90;;;;;;4973268;28;20192;-35
2023/08/02 09:19:28;;;;;;;4.03;2.97;;;18.30;99.90;;;;;;4982132;28;20206;-36
2023/08/02 09:22:13;;;;;;;4.50;3.15;;;18.30;99.90;;;;;;4958980;28;20224;-34
2023/08/02 09:24:43;;;;;;;3.70;3.33;;;18.40;99.90;;;;;;4982629;28;20262;-34
2023/08/02 09:27:15;;;;;;;4.78;3.33;;;18.50;99.90;;;;;;4955684;28;20236;-34
2023/08/02 09:29:49;;;;;;;5.72;3.50;;;18.60;99.90;;;;;;4986905;28;20180;-34
2023/08/02 09:32:24;;;;;;;4.95;3.40;;;18.70;99.90;;;;;;4977938;28;20214;-34
2023/08/02 09:34:56;;;;;;;4.60;3.45;;;18.70;99.90;;;;;;4989878;28;20207;-35
2023/08/02 09:37:35;;;;;;;3.80;3.42;;;18.70;99.90;;;;;;4982926;28;20258;-34
2023/08/02 09:40:09;;;;;;;5.07;3.30;;;18.70;99.90;;;;;;4971606;28;20193;-34
2023/08/02 09:42:36;;;;;;;3.75;3.28;;;18.70;99.90;;;;;;4978515;28;20197;-34
2023/08/02 09:45:03;;;;;;;5.88;3.60;;;18.80;99.90;;;;;;4973209;28;20213;-34
2023/08/02 09:47:30;;;;;;;3.78;3.10;;;18.80;99.90;;;;;;4976015;28;20204;-34
2023/08/02 09:50:09;;;;;;;6.00;3.78;;;18.80;99.90;;;;;;4978788;28;20183;-34
2023/08/02 09:52:39;;;;;;;4.43;3.22;;;18.80;99.90;;;;;;4972136;28;20193;-34
2023/08/02 09:55:06;;;;;;;3.53;3.13;;;18.80;99.90;;;;;;4972104;28;20208;-34
2023/08/02 09:57:33;;;;;;;3.92;3.40;;;18.80;99.90;;;;;;4979061;28;20212;-34
2023/08/02 10:00:10;;;;;;;4.40;3.65;;;18.90;99.90;;;;;;4980614;28;20212;-34
2023/08/02 10:02:43;;;;;;;5.93;3.42;;;18.90;99.90;;;;;;5002966;28;20195;-34
2023/08/02 10:05:13;;;;;;;4.38;3.63;;;18.90;99.90;;;;;;4984455;28;20326;-34
2023/08/02 10:07:49;;;;;;;5.95;3.45;;;19.00;99.90;;;;;;4991240;28;20207;-35
2023/08/02 10:10:24;;;;;;;4.50;3.10;;;19.00;99.90;;;;;;4990227;28;20175;-34
2023/08/02 10:12:54;;;;;;;4.88;3.50;;;19.10;99.90;;;;;;4988771;28;20191;-34
2023/08/02 10:15:21;;;;;;;4.28;3.60;;;19.20;99.90;;;;;;4967307;28;20199;-36
2023/08/02 10:17:47;;;;;;;4.30;3.28;;;19.30;99.90;;;;;;4990187;28;20188;-34
2023/08/02 10:20:14;;;;;;;4.05;3.28;;;19.30;99.90;;;;;;4974081;28;20172;-34
2023/08/02 10:22:43;;;;;;;5.05;3.65;;;19.40;99.90;;;;;;4983514;28;20184;-34
2023/08/02 10:25:13;;;;;;;5.28;3.38;;;19.40;99.90;;;;;;4982223;28;20212;-34
2023/08/02 10:27:41;;;;;;;4.90;3.63;;;19.40;99.90;;;;;;4994151;28;20211;-35
2023/08/02 10:30:09;;;;;;;4.40;3.88;;;19.50;99.90;;;;;;4992244;28;20181;-34
2023/08/02 10:32:37;;;;;;;4.40;3.00;;;19.60;99.90;;;;;;4973033;28;20192;-34
2023/08/02 10:35:04;;;;;;;4.78;3.50;;;19.80;99.90;;;;;;4959754;28;20207;-35
2023/08/02 10:37:54;;;;;;;4.05;3.65;;;19.90;99.90;;;;;;4975497;28;20192;-34
2023/08/02 10:40:21;;;;;;;5.18;3.67;;;20.10;99.90;;;;;;4975182;28;20179;-34
2023/08/02 10:43:06;;;;;;;4.78;3.50;;;20.40;99.90;;;;;;4973964;28;20206;-34
2023/08/02 10:45:33;;;;;;;5.72;3.65;;;20.70;99.90;;;;;;4988446;28;20183;-35
2023/08/02 10:48:23;;;;;;;4.15;3.58;;;20.90;99.90;;;;;;4992718;28;20191;-35
2023/08/02 10:50:52;;;;;;;4.25;3.75;;;21.10;99.90;;;;;;4961137;28;20225;-34
2023/08/02 10:53:25;;;;;;;4.80;3.85;;;21.20;99.90;;;;;;4972122;28;20205;-34
2023/08/02 10:56:04;;;;;;;6.43;3.80;;;21.10;99.90;;;;;;4943981;28;20201;-34
2023/08/02 10:58:51;;;;;;;4.75;4.00;;;21.20;99.90;;;;;;4968338;28;20200;-35
2023/08/02 11:01:18;;;;;;;4.00;3.58;;;21.30;99.90;;;;;;4973285;28;20189;-34
2023/08/02 11:03:45;;;;;;;5.20;3.55;;;21.30;99.90;;;;;;4975128;28;20232;-34
2023/08/02 11:06:28;;;;;;;4.18;3.50;;;21.30;99.90;;;;;;4969932;28;20209;-34
2023/08/02 11:08:55;;;;;;;5.63;3.70;;;21.40;99.90;;;;;;4969614;28;20183;-34
2023/08/02 11:11:32;;;;;;;4.45;3.50;;;21.80;99.90;;;;;;4969903;28;20177;-35
2023/08/02 11:13:59;;;;;;;3.97;3.30;;;22.30;99.90;;;;;;4950468;28;20200;-34
2023/08/02 11:16:26;;;;;;;3.45;3.15;;;22.70;99.90;;;;;;4971335;28;20188;-34
2023/08/02 11:18:54;;;;;;;6.28;3.53;;;23.00;99.90;;;;;;4971118;28;20195;-35
2023/08/02 11:21:21;;;;;;;3.80;3.40;;;23.20;99.90;;;;;;4989847;28;20184;-35
2023/08/02 11:23:49;;;;;;;4.47;3.30;;;23.50;99.90;;;;;;4988711;28;20211;-35
2023/08/02 11:26:21;;;;;;;3.80;3.30;;;23.80;99.90;;;;;;4997812;28;20229;-35
2023/08/02 11:28:52;;;;;;;4.60;3.00;;;24.00;99.90;;;;;;4997256;28;20268;-36
2023/08/02 11:31:22;;;;;;;3.85;3.38;;;24.20;99.90;;;;;;4955580;28;20211;-34
2023/08/02 11:33:49;;;;;;;3.92;3.17;;;24.30;99.90;;;;;;4975879;28;20319;-34
2023/08/02 11:36:16;;;;;;;4.47;3.47;;;24.40;99.90;;;;;;4972590;28;20224;-35
2023/08/02 11:38:43;;;;;;;3.80;3.22;;;24.50;99.90;;;;;;4974775;28;20181;-34
2023/08/02 11:41:19;;;;;;;4.05;3.08;;;24.50;99.90;;;;;;4973539;28;20187;-35
2023/08/02 11:43:46;;;;;;;5.03;3.63;;;24.60;99.90;;;;;;4972967;28;20235;-35
2023/08/02 11:46:26;;;;;;;6.85;3.25;;;24.90;99.90;;;;;;4972037;28;20200;-35
2023/08/02 11:48:53;;;;;;;4.75;3.10;;;25.10;99.90;;;;;;4989238;28;20180;-34
2023/08/02 11:51:22;;;;;;;4.15;3.22;;;24.90;99.90;;;;;;4986975;28;20176;-34
2023/08/02 11:53:55;;;;;;;3.30;2.78;;;24.90;99.90;;;;;;4973381;28;20208;-34
2023/08/02 11:56:22;;;;;;;3.25;2.50;;;25.10;99.90;;;;;;4979916;28;20241;-34
2023/08/02 11:58:49;;;;;;;3.50;2.90;;;25.10;99.90;;;;;;4975827;28;20632;-35
2023/08/02 12:01:16;;;;;;;3.65;2.92;;;25.00;99.90;;;;;;4969939;28;20187;-34
2023/08/02 12:04:00;;;;;;;3.15;2.85;;;24.90;99.90;;;;;;4975893;28;20308;-34
2023/08/02 12:06:28;;;;;;;3.13;2.45;;;24.80;99.90;;;;;;4977865;28;20208;-34
2023/08/02 12:08:56;;;;;;;3.60;2.75;;;24.70;99.90;;;;;;4973780;28;20228;-34
2023/08/02 12:11:25;;;;;;;3.92;2.75;;;24.90;99.90;;;;;;4977602;28;20176;-34
2023/08/02 12:13:51;;;;;;;2.60;2.38;;;24.90;99.90;;;;;;4973825;28;20228;-34
2023/08/02 12:16:18;;;;;;;4.13;2.50;;;24.90;99.90;;;;;;4978319;28;20216;-34
2023/08/02 12:18:51;;;;;;;3.00;2.50;;;24.90;99.90;;;;;;4983936;28;20259;-34
2023/08/02 12:21:18;;;;;;;2.47;2.00;;;25.10;99.90;;;;;;4969883;28;20243;-34
2023/08/02 12:23:44;;;;;;;2.55;2.28;;;25.10;99.90;;;;;;4965449;28;20282;-34
2023/08/02 12:26:10;;;;;;;3.75;2.35;;;25.00;99.90;;;;;;4966934;28;20224;-34
2023/08/02 12:28:46;;;;;;;4.13;2.17;;;25.00;99.90;;;;;;4971081;28;20185;-34
2023/08/02 12:31:14;;;;;;;3.17;2.05;;;24.90;99.90;;;;;;4971388;28;20184;-34
2023/08/02 12:33:44;;;;;;;2.78;2.20;;;24.90;99.90;;;;;;4958214;28;20223;-33
2023/08/02 12:36:10;;;;;;;3.88;2.22;;;24.90;99.90;;;;;;4970650;28;20200;-34
2023/08/02 12:38:36;;;;;;;2.72;2.53;;;25.20;99.90;;;;;;4987276;28;20189;-34
2023/08/02 12:41:07;;;;;;;2.63;1.77;;;25.40;99.90;;;;;;4972206;28;20651;-34
2023/08/02 12:43:34;;;;;;;2.88;2.10;;;25.40;99.90;;;;;;4971670;28;20239;-34
2023/08/02 12:46:00;;;;;;;5.15;2.30;;;25.50;99.90;;;;;;4970328;28;20216;-34
2023/08/02 12:48:26;;;;;;;2.38;2.08;;;25.50;99.90;;;;;;4955719;28;20184;-34
2023/08/02 12:50:52;;;;;;;2.35;2.15;;;25.60;99.90;;;;;;4970808;28;20173;-34